createdAt,value
2022-12-24T00:01:21.534Z,9.60
2022-12-24T00:03:48.959Z,9.60
2022-12-24T00:06:23.620Z,9.50
2022-12-24T00:08:53.700Z,9.40
2022-12-24T00:11:21.449Z,9.40
2022-12-24T00:13:49.175Z,9.30
2022-12-24T00:16:16.956Z,9.30
2022-12-24T00:18:46.572Z,9.30
2022-12-24T00:21:15.801Z,9.40
2022-12-24T00:23:43.207Z,9.50
2022-12-24T00:26:10.732Z,9.40
2022-12-24T00:28:39.466Z,9.40
2022-12-24T00:31:15.928Z,9.50
2022-12-24T00:33:43.307Z,9.50
2022-12-24T00:36:10.694Z,9.60
2022-12-24T00:38:38.762Z,9.60
2022-12-24T00:41:25.007Z,9.80
2022-12-24T00:43:54.218Z,10.00
2022-12-24T00:46:22.014Z,10.00
2022-12-24T00:48:49.548Z,10.00
2022-12-24T00:51:18.642Z,10.10
2022-12-24T00:53:45.862Z,10.00
2022-12-24T00:56:12.982Z,9.90
2022-12-24T00:58:40.137Z,9.90
2022-12-24T01:01:08.135Z,10.00
2022-12-24T01:03:35.739Z,10.00
2022-12-24T01:06:05.803Z,9.90
2022-12-24T01:08:34.016Z,9.90
2022-12-24T01:11:05.715Z,9.90
2022-12-24T01:13:33.128Z,9.90
2022-12-24T01:16:00.320Z,9.80
2022-12-24T01:18:27.693Z,9.80
2022-12-24T01:21:02.006Z,9.80
2022-12-24T01:23:31.052Z,9.80
2022-12-24T01:26:02.911Z,9.80
2022-12-24T01:28:30.125Z,9.70
2022-12-24T01:30:57.466Z,9.60
2022-12-24T01:33:24.568Z,9.60
2022-12-24T01:35:51.637Z,9.60
2022-12-24T01:38:18.736Z,9.60
2022-12-24T01:41:04.601Z,9.50
2022-12-24T01:43:32.920Z,9.40
2022-12-24T01:46:29.511Z,9.50
2022-12-24T01:49:00.491Z,9.40
2022-12-24T01:51:46.792Z,9.30
2022-12-24T01:54:39.039Z,9.30
2022-12-24T01:57:15.118Z,9.20
2022-12-24T01:59:46.582Z,9.10
2022-12-24T02:02:14.385Z,9.10
2022-12-24T02:05:10.657Z,9.00
2022-12-24T02:07:38.028Z,8.90
2022-12-24T02:10:08.425Z,9.00
2022-12-24T02:12:40.303Z,9.10
2022-12-24T02:15:10.137Z,9.20
2022-12-24T02:17:54.409Z,9.30
2022-12-24T02:20:49.552Z,9.30
2022-12-24T02:23:58.300Z,9.20
2022-12-24T02:26:46.590Z,9.30
2022-12-24T02:30:02.382Z,9.30
2022-12-24T02:32:54.936Z,9.30
2022-12-24T02:35:42.929Z,9.20
2022-12-24T02:38:39.044Z,9.30
2022-12-24T02:41:15.008Z,9.40
2022-12-24T02:43:46.071Z,9.50
2022-12-24T02:46:22.625Z,9.50
2022-12-24T02:48:50.868Z,9.60
2022-12-24T02:51:24.952Z,9.70
2022-12-24T02:53:52.211Z,9.70
2022-12-24T02:56:53.120Z,9.60
2022-12-24T02:59:45.542Z,9.60
2022-12-24T03:03:07.894Z,9.60
2022-12-24T03:05:52.925Z,9.60
2022-12-24T03:08:47.939Z,9.60
2022-12-24T03:11:15.584Z,9.70
2022-12-24T03:13:43.961Z,9.70
2022-12-24T03:16:21.860Z,9.60
2022-12-24T03:18:52.466Z,9.70
2022-12-24T03:21:26.596Z,9.80
2022-12-24T03:23:54.525Z,9.80
2022-12-24T03:26:22.235Z,9.70
2022-12-24T03:28:50.150Z,9.70
2022-12-24T03:31:18.849Z,9.80
2022-12-24T03:33:48.455Z,9.90
2022-12-24T03:36:15.910Z,9.90
2022-12-24T03:38:43.045Z,9.90
2022-12-24T03:41:10.253Z,9.90
2022-12-24T03:43:37.384Z,9.90
2022-12-24T03:46:08.656Z,9.90
2022-12-24T03:48:36.723Z,9.80
2022-12-24T03:51:04.314Z,9.80
2022-12-24T03:53:31.544Z,9.80
2022-12-24T03:55:58.646Z,9.80
2022-12-24T03:58:25.746Z,9.70
2022-12-24T04:00:54.316Z,9.70
2022-12-24T04:03:21.634Z,9.70
2022-12-24T04:05:48.830Z,9.60
2022-12-24T04:08:17.260Z,9.70
2022-12-24T04:10:44.313Z,9.70
2022-12-24T04:13:11.436Z,9.60
2022-12-24T04:15:38.591Z,9.60
2022-12-24T04:18:06.520Z,9.70
2022-12-24T04:20:33.663Z,9.60
2022-12-24T04:23:00.727Z,9.50
2022-12-24T04:25:27.777Z,9.40
2022-12-24T04:27:54.853Z,9.40
2022-12-24T04:30:21.932Z,9.30
2022-12-24T04:32:49.025Z,9.30
2022-12-24T04:35:16.238Z,9.30
2022-12-24T04:37:43.490Z,9.20
2022-12-24T04:40:11.083Z,9.20
2022-12-24T04:42:38.326Z,9.20
2022-12-24T04:45:06.061Z,9.10
2022-12-24T04:47:33.198Z,9.00
2022-12-24T04:50:01.632Z,9.00
2022-12-24T04:52:28.868Z,8.90
2022-12-24T04:54:56.057Z,8.90
2022-12-24T04:57:23.196Z,9.00
2022-12-24T04:59:50.279Z,9.10
2022-12-24T05:02:19.125Z,9.20
2022-12-24T05:04:46.328Z,9.20
2022-12-24T05:07:13.417Z,9.30
2022-12-24T05:09:40.546Z,9.20
2022-12-24T05:12:08.334Z,9.20
2022-12-24T05:14:35.561Z,9.30
2022-12-24T05:17:02.676Z,9.30
2022-12-24T05:19:29.843Z,9.30
2022-12-24T05:22:15.598Z,9.30
2022-12-24T05:25:01.373Z,9.30
2022-12-24T05:27:28.903Z,9.20
2022-12-24T05:29:56.062Z,9.20
2022-12-24T05:32:23.172Z,9.20
2022-12-24T05:34:50.252Z,9.20
2022-12-24T05:37:17.449Z,9.20
2022-12-24T05:39:44.549Z,9.20
2022-12-24T05:42:11.579Z,9.10
2022-12-24T05:44:38.660Z,9.10
2022-12-24T05:47:05.776Z,9.20
2022-12-24T05:49:32.811Z,9.20
2022-12-24T05:52:00.051Z,9.20
2022-12-24T05:54:27.308Z,9.20
2022-12-24T05:56:54.385Z,9.20
2022-12-24T05:59:21.447Z,9.10
2022-12-24T06:01:48.673Z,9.20
2022-12-24T06:04:15.842Z,9.10
2022-12-24T06:06:43.087Z,9.10
2022-12-24T06:09:10.248Z,9.10
2022-12-24T06:11:37.361Z,9.00
2022-12-24T06:14:04.489Z,9.10
2022-12-24T06:16:31.668Z,9.10
2022-12-24T06:18:59.020Z,9.10
2022-12-24T06:21:26.219Z,9.20
2022-12-24T06:23:53.478Z,9.20
2022-12-24T06:26:23.250Z,9.20
2022-12-24T06:28:51.659Z,9.20
2022-12-24T06:31:21.858Z,9.20
2022-12-24T06:33:49.426Z,9.20
2022-12-24T06:36:22.222Z,9.20
2022-12-24T06:38:50.064Z,9.20
2022-12-24T06:41:18.752Z,9.20
2022-12-24T06:43:51.730Z,9.30
2022-12-24T06:46:21.142Z,9.40
2022-12-24T06:48:48.654Z,9.40
2022-12-24T06:51:20.001Z,9.40
2022-12-24T06:53:50.592Z,9.30
2022-12-24T06:56:19.488Z,9.30
2022-12-24T06:58:46.785Z,9.30
2022-12-24T07:01:16.199Z,9.30
2022-12-24T07:03:44.079Z,9.30
2022-12-24T07:06:29.580Z,9.30
2022-12-24T07:08:56.961Z,9.30
2022-12-24T07:11:26.295Z,9.40
2022-12-24T07:13:53.395Z,9.40
2022-12-24T07:16:20.973Z,9.30
2022-12-24T07:18:48.178Z,9.30
2022-12-24T07:21:15.358Z,9.30
2022-12-24T07:23:42.557Z,9.40
2022-12-24T07:26:11.100Z,9.50
2022-12-24T07:28:38.574Z,9.50
2022-12-24T07:31:05.910Z,9.40
2022-12-24T07:33:33.053Z,9.40
2022-12-24T07:36:00.273Z,9.40
2022-12-24T07:38:27.866Z,9.40
2022-12-24T07:40:55.095Z,9.40
2022-12-24T07:43:22.233Z,9.40
2022-12-24T07:45:49.327Z,9.40
2022-12-24T07:48:17.327Z,9.40
2022-12-24T07:50:44.456Z,9.30
2022-12-24T07:53:11.608Z,9.30
2022-12-24T07:55:38.648Z,9.40
2022-12-24T07:58:05.701Z,9.40
2022-12-24T08:00:32.924Z,9.40
2022-12-24T08:03:00.436Z,9.40
2022-12-24T08:05:28.301Z,9.40
2022-12-24T08:07:55.979Z,9.40
2022-12-24T08:10:23.015Z,9.40
2022-12-24T08:12:50.281Z,9.40
2022-12-24T08:15:17.560Z,9.40
2022-12-24T08:17:45.298Z,9.40
2022-12-24T08:20:12.668Z,9.40
2022-12-24T08:22:39.834Z,9.40
2022-12-24T08:25:07.867Z,9.50
2022-12-24T08:27:35.104Z,9.50
2022-12-24T08:30:02.979Z,9.50
2022-12-24T08:32:30.004Z,9.60
2022-12-24T08:34:57.124Z,9.60
2022-12-24T08:37:24.360Z,9.60
2022-12-24T08:39:51.589Z,9.70
2022-12-24T08:42:18.739Z,9.70
2022-12-24T08:44:46.121Z,9.80
2022-12-24T08:47:13.390Z,9.80
2022-12-24T08:49:40.574Z,9.80
2022-12-24T08:52:08.798Z,9.80
2022-12-24T08:54:35.862Z,9.90
2022-12-24T08:57:02.926Z,9.90
2022-12-24T08:59:30.110Z,9.90
2022-12-24T09:01:57.282Z,10.00
2022-12-24T09:04:24.415Z,10.10
2022-12-24T09:06:51.591Z,10.10
2022-12-24T09:09:18.689Z,10.10
2022-12-24T09:11:45.803Z,10.20
2022-12-24T09:14:12.898Z,10.40
2022-12-24T09:16:40.106Z,10.50
2022-12-24T09:19:07.249Z,10.60
2022-12-24T09:21:34.504Z,10.70
2022-12-24T09:24:04.299Z,10.70
2022-12-24T09:26:32.138Z,10.80
2022-12-24T09:29:00.892Z,10.90
2022-12-24T09:31:28.596Z,11.10
2022-12-24T09:33:55.960Z,11.10
2022-12-24T09:36:23.056Z,11.10
2022-12-24T09:38:51.177Z,11.00
2022-12-24T09:41:24.311Z,11.10
2022-12-24T09:44:01.313Z,11.00
2022-12-24T09:46:36.695Z,11.00
2022-12-24T09:49:11.632Z,10.90
2022-12-24T09:51:53.525Z,10.90
2022-12-24T09:54:50.281Z,10.90
2022-12-24T09:57:34.911Z,10.90
2022-12-24T10:00:03.135Z,10.80
2022-12-24T10:02:32.302Z,10.70
2022-12-24T10:04:59.599Z,10.70
2022-12-24T10:07:43.785Z,10.70
2022-12-24T10:10:43.686Z,10.60
2022-12-24T10:13:27.945Z,10.50
2022-12-24T10:16:01.301Z,10.40
2022-12-24T10:18:48.820Z,10.50
2022-12-24T10:21:45.971Z,10.50
2022-12-24T10:24:31.350Z,10.60
2022-12-24T10:27:03.521Z,10.70
2022-12-24T10:29:36.775Z,10.80
2022-12-24T10:32:10.098Z,10.90
2022-12-24T10:34:44.516Z,11.00
2022-12-24T10:37:25.344Z,11.30
2022-12-24T10:39:53.296Z,11.60
2022-12-24T10:42:25.036Z,11.90
2022-12-24T10:44:57.302Z,12.10
2022-12-24T10:47:24.841Z,12.10
2022-12-24T10:50:28.653Z,12.10
2022-12-24T10:53:38.312Z,12.10
2022-12-24T10:56:10.759Z,12.20
2022-12-24T10:58:43.979Z,12.40
2022-12-24T11:01:11.360Z,12.40
2022-12-24T11:03:39.944Z,12.20
2022-12-24T11:06:22.394Z,12.10
2022-12-24T11:08:49.648Z,12.00
2022-12-24T11:11:21.669Z,11.80
2022-12-24T11:13:51.884Z,11.60
2022-12-24T11:16:30.766Z,11.60
2022-12-24T11:19:02.011Z,11.80
2022-12-24T11:21:35.007Z,11.90
2022-12-24T11:24:14.106Z,11.90
2022-12-24T11:26:44.210Z,12.00
2022-12-24T11:29:22.129Z,12.10
2022-12-24T11:31:52.781Z,12.00
2022-12-24T11:34:33.477Z,11.90
2022-12-24T11:37:18.963Z,11.90
2022-12-24T11:39:55.590Z,11.90
2022-12-24T11:42:38.750Z,11.90
2022-12-24T11:45:28.175Z,11.80
2022-12-24T11:47:58.003Z,11.70
2022-12-24T11:50:36.826Z,11.60
2022-12-24T11:53:03.856Z,11.50
2022-12-24T11:55:53.501Z,11.40
2022-12-24T11:58:26.442Z,11.30
2022-12-24T12:01:25.077Z,11.20
2022-12-24T12:04:01.175Z,11.00
2022-12-24T12:06:51.465Z,10.90
2022-12-24T12:09:31.883Z,10.60
2022-12-24T12:12:23.647Z,10.40
2022-12-24T12:15:25.742Z,10.30
2022-12-24T12:18:38.884Z,10.10
2022-12-24T12:21:23.779Z,9.90
2022-12-24T12:24:06.106Z,9.80
2022-12-24T12:26:34.116Z,9.70
2022-12-24T12:29:27.468Z,9.70
2022-12-24T12:32:04.995Z,9.60
2022-12-24T12:34:55.765Z,9.50
2022-12-24T12:37:35.967Z,9.50
2022-12-24T12:40:04.409Z,9.50
2022-12-24T12:42:35.406Z,9.50
2022-12-24T12:45:36.792Z,9.40
2022-12-24T12:48:41.873Z,9.40
2022-12-24T12:51:23.097Z,9.40
2022-12-24T12:54:22.725Z,9.40
2022-12-24T12:56:56.046Z,9.40
2022-12-24T13:00:12.592Z,9.30
2022-12-24T13:02:51.653Z,9.30
2022-12-24T13:05:53.993Z,9.40
2022-12-24T13:08:57.536Z,9.40
2022-12-24T13:11:50.601Z,9.40
2022-12-24T13:14:38.717Z,9.50
2022-12-24T13:17:42.219Z,9.40
2022-12-24T13:20:30.952Z,9.30
2022-12-24T13:23:12.310Z,9.40
2022-12-24T13:25:46.285Z,9.50
2022-12-24T13:28:22.418Z,9.50
2022-12-24T13:31:11.827Z,9.50
2022-12-24T13:33:39.077Z,9.50
2022-12-24T13:36:18.207Z,9.50
2022-12-24T13:38:50.850Z,9.50
2022-12-24T13:41:40.219Z,9.50
2022-12-24T13:44:13.980Z,9.50
2022-12-24T13:46:58.136Z,9.40
2022-12-24T13:49:41.759Z,9.40
2022-12-24T13:52:11.921Z,9.40
2022-12-24T13:54:50.671Z,9.40
2022-12-24T13:57:44.895Z,9.40
2022-12-24T14:00:21.086Z,9.40
2022-12-24T14:03:13.200Z,9.40
2022-12-24T14:05:43.507Z,9.40
2022-12-24T14:08:16.797Z,9.30
2022-12-24T14:11:04.515Z,9.30
2022-12-24T14:13:40.806Z,9.30
2022-12-24T14:16:25.066Z,9.30
2022-12-24T14:19:12.830Z,9.30
2022-12-24T14:21:53.468Z,9.20
2022-12-24T14:24:48.618Z,9.20
2022-12-24T14:27:41.282Z,9.20
2022-12-24T14:30:24.719Z,9.20
2022-12-24T14:32:53.326Z,9.20
2022-12-24T14:35:50.558Z,9.30
2022-12-24T14:38:22.975Z,9.20
2022-12-24T14:41:18.950Z,9.20
2022-12-24T14:43:53.947Z,9.20
2022-12-24T14:47:25.457Z,9.20
2022-12-24T14:50:34.064Z,9.20
2022-12-24T14:53:27.011Z,9.20
2022-12-24T14:55:54.260Z,9.20
2022-12-24T14:58:33.578Z,9.20
2022-12-24T15:01:18.605Z,9.10
2022-12-24T15:03:45.822Z,9.10
2022-12-24T15:06:14.534Z,9.10
2022-12-24T15:08:48.980Z,9.10
2022-12-24T15:11:22.690Z,9.10
2022-12-24T15:13:56.756Z,9.10
2022-12-24T15:16:29.170Z,9.00
2022-12-24T15:19:03.450Z,9.00
2022-12-24T15:21:42.645Z,9.00
2022-12-24T15:24:34.662Z,8.90
2022-12-24T15:27:16.303Z,8.90
2022-12-24T15:29:47.465Z,8.80
2022-12-24T15:32:18.299Z,8.70
2022-12-24T15:34:52.560Z,8.60
2022-12-24T15:37:31.138Z,8.50
2022-12-24T15:40:21.284Z,8.40
2022-12-24T15:42:48.983Z,8.40
2022-12-24T15:45:26.606Z,8.40
2022-12-24T15:48:26.234Z,8.40
2022-12-24T15:50:57.939Z,8.50
2022-12-24T15:53:29.051Z,8.50
2022-12-24T15:56:46.501Z,8.50
2022-12-24T15:59:28.365Z,8.60
2022-12-24T16:01:55.864Z,8.60
2022-12-24T16:04:28.879Z,8.60
2022-12-24T16:07:02.909Z,8.60
2022-12-24T16:09:38.475Z,8.70
2022-12-24T16:12:15.917Z,8.70
2022-12-24T16:14:57.889Z,8.70
2022-12-24T16:17:29.054Z,8.80
2022-12-24T16:20:04.313Z,8.80
2022-12-24T16:22:32.507Z,8.80
2022-12-24T16:25:00.422Z,8.80
2022-12-24T16:27:28.013Z,8.70
2022-12-24T16:29:55.191Z,8.70
2022-12-24T16:32:35.377Z,8.70
2022-12-24T16:35:05.735Z,8.70
2022-12-24T16:37:33.119Z,8.70
2022-12-24T16:40:01.262Z,8.60
2022-12-24T16:42:46.899Z,8.60
2022-12-24T16:45:14.079Z,8.50
2022-12-24T16:47:43.110Z,8.40
2022-12-24T16:50:17.331Z,8.30
2022-12-24T16:52:44.745Z,8.30
2022-12-24T16:55:15.654Z,8.20
2022-12-24T16:57:43.773Z,8.00
2022-12-24T17:00:21.485Z,8.00
2022-12-24T17:02:49.936Z,8.00
2022-12-24T17:05:17.811Z,7.90
2022-12-24T17:07:45.326Z,7.80
2022-12-24T17:10:14.390Z,7.80
2022-12-24T17:12:42.228Z,7.80
2022-12-24T17:15:10.184Z,7.70
2022-12-24T17:17:37.539Z,7.70
2022-12-24T17:20:05.880Z,7.70
2022-12-24T17:22:32.975Z,7.70
2022-12-24T17:25:00.069Z,7.80
2022-12-24T17:27:27.389Z,7.70
2022-12-24T17:29:54.780Z,7.80
2022-12-24T17:32:22.036Z,7.90
2022-12-24T17:34:49.097Z,8.00
2022-12-24T17:37:16.332Z,8.10
2022-12-24T17:39:43.602Z,8.30
2022-12-24T17:42:10.808Z,8.40
2022-12-24T17:44:37.869Z,8.40
2022-12-24T17:47:05.472Z,8.40
2022-12-24T17:49:32.794Z,8.40
2022-12-24T17:52:00.029Z,8.50
2022-12-24T17:54:27.293Z,8.50
2022-12-24T17:56:54.353Z,8.50
2022-12-24T17:59:21.420Z,8.50
2022-12-24T18:01:48.721Z,8.50
2022-12-24T18:04:15.845Z,8.50
2022-12-24T18:06:48.784Z,8.50
2022-12-24T18:09:16.353Z,8.50
2022-12-24T18:11:43.523Z,8.50
2022-12-24T18:14:14.230Z,8.50
2022-12-24T18:16:42.248Z,8.40
2022-12-24T18:19:12.790Z,8.40
2022-12-24T18:21:41.845Z,8.30
2022-12-24T18:24:10.266Z,8.30
2022-12-24T18:26:37.304Z,8.30
2022-12-24T18:29:04.872Z,8.20
2022-12-24T18:31:34.087Z,8.20
2022-12-24T18:34:04.356Z,8.30
2022-12-24T18:36:31.758Z,8.30
2022-12-24T18:38:59.371Z,8.30
2022-12-24T18:41:29.825Z,8.30
2022-12-24T18:43:59.771Z,8.30
2022-12-24T18:46:31.795Z,8.20
2022-12-24T18:49:00.405Z,8.20
2022-12-24T18:51:34.521Z,8.30
2022-12-24T18:54:03.192Z,8.20
2022-12-24T18:56:31.413Z,8.20
2022-12-24T18:59:02.000Z,8.20
2022-12-24T19:01:35.019Z,8.10
2022-12-24T19:04:03.007Z,8.10
2022-12-24T19:06:30.183Z,8.00
2022-12-24T19:08:59.724Z,8.00
2022-12-24T19:11:31.591Z,8.00
2022-12-24T19:13:59.724Z,7.90
2022-12-24T19:16:28.805Z,7.90
2022-12-24T19:18:56.748Z,7.90
2022-12-24T19:21:24.225Z,7.80
2022-12-24T19:23:51.880Z,7.90
2022-12-24T19:26:20.733Z,7.90
2022-12-24T19:28:48.446Z,7.80
2022-12-24T19:31:22.538Z,7.80
2022-12-24T19:33:53.603Z,7.80
2022-12-24T19:36:27.455Z,7.80
2022-12-24T19:38:55.914Z,7.90
2022-12-24T19:41:27.136Z,7.80
2022-12-24T19:43:58.044Z,7.80
2022-12-24T19:46:32.623Z,7.90
2022-12-24T19:49:05.167Z,7.90
2022-12-24T19:51:33.744Z,7.90
2022-12-24T19:54:01.766Z,7.90
2022-12-24T19:56:31.541Z,8.00
2022-12-24T19:59:01.684Z,7.90
2022-12-24T20:01:32.024Z,8.00
2022-12-24T20:04:00.060Z,8.00
2022-12-24T20:06:30.614Z,8.00
2022-12-24T20:09:06.818Z,8.00
2022-12-24T20:11:35.170Z,8.00
2022-12-24T20:14:06.676Z,8.00
2022-12-24T20:16:35.490Z,8.00
2022-12-24T20:19:06.126Z,8.00
2022-12-24T20:21:33.833Z,8.00
2022-12-24T20:24:00.907Z,8.00
2022-12-24T20:26:29.505Z,8.00
2022-12-24T20:28:56.807Z,8.00
2022-12-24T20:31:29.605Z,8.00
2022-12-24T20:33:58.268Z,8.00
2022-12-24T20:36:27.679Z,8.10
2022-12-24T20:38:56.275Z,8.10
2022-12-24T20:41:25.905Z,8.10
2022-12-24T20:43:53.364Z,8.20
2022-12-24T20:46:24.155Z,8.10
2022-12-24T20:48:52.990Z,8.10
2022-12-24T20:51:25.262Z,8.10
2022-12-24T20:53:55.251Z,8.10
2022-12-24T20:56:23.619Z,8.10
2022-12-24T20:58:52.654Z,8.00
2022-12-24T21:01:26.257Z,7.90
2022-12-24T21:03:55.795Z,7.90
2022-12-24T21:06:24.957Z,7.80
2022-12-24T21:08:55.096Z,7.70
2022-12-24T21:11:41.727Z,7.70
2022-12-24T21:14:09.857Z,7.60
2022-12-24T21:16:38.425Z,7.70
2022-12-24T21:19:07.809Z,7.60
2022-12-24T21:21:36.258Z,7.60
2022-12-24T21:24:05.856Z,7.60
2022-12-24T21:26:33.869Z,7.60
2022-12-24T21:29:04.474Z,7.60
2022-12-24T21:31:32.249Z,7.60
2022-12-24T21:33:59.364Z,7.70
2022-12-24T21:36:27.046Z,7.70
2022-12-24T21:38:55.021Z,7.60
2022-12-24T21:41:26.175Z,7.70
2022-12-24T21:43:53.543Z,7.80
2022-12-24T21:46:25.237Z,7.80
2022-12-24T21:49:13.412Z,7.80
2022-12-24T21:51:41.378Z,7.80
2022-12-24T21:54:23.277Z,7.80
2022-12-24T21:57:10.953Z,7.80
2022-12-24T21:59:38.611Z,7.80
2022-12-24T22:02:06.428Z,7.80
2022-12-24T22:04:34.537Z,7.80
2022-12-24T22:07:21.676Z,7.80
2022-12-24T22:10:07.458Z,7.70
2022-12-24T22:12:36.458Z,7.70
2022-12-24T22:15:07.031Z,7.70
2022-12-24T22:17:34.280Z,7.60
2022-12-24T22:20:01.663Z,7.50
2022-12-24T22:22:28.726Z,7.50
2022-12-24T22:24:55.801Z,7.50
2022-12-24T22:27:24.095Z,7.40
2022-12-24T22:29:51.161Z,7.50
2022-12-24T22:32:18.360Z,7.40
2022-12-24T22:34:46.594Z,7.50
2022-12-24T22:37:13.683Z,7.40
2022-12-24T22:39:40.758Z,7.40
2022-12-24T22:42:07.947Z,7.40
2022-12-24T22:44:35.098Z,7.40
2022-12-24T22:47:02.248Z,7.40
2022-12-24T22:49:29.393Z,7.40
2022-12-24T22:51:58.161Z,7.30
2022-12-24T22:54:26.015Z,7.20
2022-12-24T22:56:53.357Z,7.20
2022-12-24T22:59:20.672Z,7.20
2022-12-24T23:01:48.631Z,7.30
2022-12-24T23:04:15.983Z,7.40
2022-12-24T23:06:44.729Z,7.50
2022-12-24T23:09:18.606Z,7.50
2022-12-24T23:11:45.825Z,7.50
2022-12-24T23:14:37.680Z,7.60
2022-12-24T23:17:06.258Z,7.60
2022-12-24T23:19:33.912Z,7.70
2022-12-24T23:22:03.922Z,7.70
2022-12-24T23:24:31.989Z,7.70
2022-12-24T23:27:01.658Z,7.70
2022-12-24T23:29:33.322Z,7.70
2022-12-24T23:32:01.067Z,7.60
2022-12-24T23:34:28.340Z,7.70
2022-12-24T23:36:55.495Z,7.70
2022-12-24T23:39:22.781Z,7.70
2022-12-24T23:41:49.939Z,7.70
2022-12-24T23:44:17.164Z,7.60
2022-12-24T23:46:44.296Z,7.70
2022-12-24T23:49:15.495Z,7.80
2022-12-24T23:51:42.831Z,7.80
2022-12-24T23:54:09.953Z,7.80
2022-12-24T23:56:37.742Z,7.90
2022-12-24T23:59:04.917Z,7.90
